Perth Jandakot Airport
YPJT : now visible

Airfield :











YOU CAN JOIN US ON...

 
LOGIN :

Register | Disclaimer

   EN    FR    IT 

 









Legend :    VFR   Marginal VFR   IFR   Intensive IFR   Very Intensive IFR
Visi :
Ceiling :
>= 8 km
>= 3000ft
5 to 8 km
1000 to 3000 ft
1500m to 5 km
500 to 1000 ft
800 to 1500m
200 to 500 ft
< 800m
< 200 ft
Symbols :   Thunderstorms  Fog  Heavy snow  Heavy precipitations  Wind > 20 kt






- Airport Elevation : 99 ft
- IATA code : JAD


YPJT - Perth Jandakot

CURRENT METAR :
  • 191430Z AUTO 10011KT 9999 // NCD 15/10 Q1030 RF00.0/000.0

EXPIRED METARs :
  • 191400Z AUTO 13008KT 9999 // NCD 15/10 Q1029 RF00.0/000.0
  • 191330Z AUTO 12008KT 9999 // BKN063 15/11 Q1029 RF00.0/000.0
  • 191300Z AUTO 11007KT 9999 // OVC061 16/12 Q1029 RF00.0/000.0
  • 191230Z AUTO 11006KT 9999 // SCT049 BKN059 16/12 Q1029
  • 191200Z AUTO 12007KT 9999 // BKN045 16/13 Q1028 RF00.0/000.0

TAF TAF YPJT
Valid from the 19 at 12:00 until the 20 at 06:00 UTC


191108Z 1912/2006 16008KT 9999 FEW045
FM191500 12008KT CAVOK
FM192300 08012KT CAVOK
YMMM FIR / Oceania



MET'MAP, your aeronautical weather chart ! - Copyright ORBIFLY December 2007 - Disclaimer

ORBIFLY MET'MAP TEAM :

Programming & Development : Alexandra Zaïnal
Concept & original design : Baudouin d'Aumeries
Assistance for programming : Marc-Olivier Méhu
Technical & hardware support : Manuel Goepfert

Contact : metmap@orbifly.com




SOURCES & CREDITS :

   NOAA       Earth
Advisory